This is the latest recevied weather packets stored in our database for station/object F4AMY-13. If no packets are shown the sender has not sent any weather packets the latest 10 day(s).
| Time | Temp. | Humidity | Pressure | Rain* | Wind** | Luminosity | Snow |
|---|---|---|---|---|---|---|---|
| 1777818916 | 21.67° C | 47% | 1015.2 hPa | 0 mm | 50.07 m/s, ° | 112 W/m² | - |
| 1777818616 | 21.67° C | 45% | 1015.5 hPa | 0 mm | 63.03 m/s, ° | 141 W/m² | - |
| 1777818316 | 21.67° C | 45% | 1015.5 hPa | 0 mm | 63.03 m/s, ° | 141 W/m² | - |
| 1777818016 | 21.11° C | 46% | 1015.4 hPa | 0 mm | 84.04 m/s, ° | 188 W/m² | - |
| 1777817716 | 21.11° C | 46% | 1015.7 hPa | 0 mm | 99.24 m/s, ° | 222 W/m² | - |
| 1777817416 | 21.67° C | 47% | 1015.5 hPa | 0 mm | 46.94 m/s, ° | 105 W/m² | - |
| 1777817324 | 21.67° C | 46% | 1015.8 hPa | 0 mm | 61.69 m/s, ° | 138 W/m² | - |
| 1777817077 | 21.67° C | 46% | 1015.8 hPa | 0 mm | 61.69 m/s, ° | 138 W/m² | - |
| 1777816777 | 21.67° C | 46% | 1015.8 hPa | 0 mm | 61.69 m/s, ° | 138 W/m² | - |
| 1777816738 | 21.67° C | 46% | 1015.8 hPa | 0 mm | 61.69 m/s, ° | 138 W/m² | - |
| 1777816638 | 21.67° C | 46% | 1015.8 hPa | 0 mm | 61.69 m/s, ° | 138 W/m² | - |
| 1777816520 | 21.67° C | 46% | 1015.8 hPa | 0 mm | 61.69 m/s, ° | 138 W/m² | - |
| 1777816405 | 21.67° C | 46% | 1015.8 hPa | 0 mm | 61.69 m/s, ° | 138 W/m² | - |
| 1777816105 | 21.67° C | 47% | 1015.9 hPa | 0 mm | 62.14 m/s, ° | 139 W/m² | - |
| 1777815805 | 21.11° C | 46% | 1016.2 hPa | 0 mm | 60.35 m/s, ° | 135 W/m² | - |
| 1777815505 | 21.11° C | 49% | 1016.1 hPa | 0 mm | 64.82 m/s, ° | 145 W/m² | - |
| 1777815205 | 21.11° C | 45% | 1016.4 hPa | 0 mm | 51.41 m/s, ° | 115 W/m² | - |
| 1777814905 | 21.11° C | 47% | 1016.3 hPa | 0 mm | 59.01 m/s, ° | 132 W/m² | - |
| 1777814605 | 20.56° C | 45% | 1016.2 hPa | 0 mm | 51.86 m/s, ° | 116 W/m² | - |
| 1777814305 | 20.56° C | 47% | 1016.1 hPa | 0 mm | 58.12 m/s, ° | 130 W/m² | - |
| 1777814005 | 20.56° C | 47% | 1016.3 hPa | 0 mm | 63.03 m/s, ° | 141 W/m² | - |
| 1777813542 | 20.56° C | 51% | 1016.5 hPa | 0 mm | 38.45 m/s, ° | 86 W/m² | - |
| 1777813295 | 20.56° C | 51% | 1016.5 hPa | 0 mm | 38.45 m/s, ° | 86 W/m² | - |
| 1777812995 | 20.56° C | 51% | 1016.5 hPa | 0 mm | 38.45 m/s, ° | 86 W/m² | - |
| 1777812774 | 20.56° C | 52% | 1016.6 hPa | 0 mm | 43.36 m/s, ° | 97 W/m² | - |
* Rain latest hour (hover to see other rain measurements)
** Current wind speed in m/s (hover to see current wind gust speed)